Nearby METAR Reports

 

LGBL - Nea Anchialos, Greece
Distance from station: SW 15km
Updated: 04/07/2015 01:50
Mostly cloudy
Mostly cloudy
 Wind from calm
Wind: Calm
Temperature: 22°C
Dew Point: 15°C
Humidity: 65%
Barometer: 1022 hPa
Clouds: Mostly cloudy
Visibility: 10 km
Cloud details: Few Clouds 1067 m
Mostly cloudy 2438 m
2015/07/03 22:50 LGBL 032250Z 00000KT 9999 FEW035 BKN080 22/15 Q1022
LGSK - Skiathos Island, Greece
Distance from station: ESE 51km
Updated: 03/07/2015 21:50
NOT Current
Partly cloudy
Partly cloudy
 Wind from varies
Wind: varies 0 km/h
Temperature: 24°C
Dew Point: 14°C
Humidity: 54%
Barometer: 1021 hPa
Clouds: Partly cloudy
Visibility: 10 km
Cloud details: Partly cloudy 914 m
Partly cloudy 2743 m
2015/07/03 18:50 LGSK 031850Z /////KT 9999 SCT030 SCT090 24/14 Q1021
 
LGTS - Thessaloniki/Mik, Greece
Distance from station: N 135km
Updated: 04/07/2015 02:20
Partly cloudy
Partly cloudy
 Wind from WNW
Wind: WNW 9 km/h
Temperature: 22°C
Dew Point: 18°C
Humidity: 78%
Barometer: 1022 hPa
Clouds: Partly cloudy
Visibility: 10 km
Cloud details: Partly cloudy 914 m
Partly cloudy 2438 m
2015/07/03 23:20 LGTS 032320Z 30005KT 9999 SCT030 SCT080 22/18 Q1022 NOSIG
LGSY - Skiros, Greece
Distance from station: ESE 139km
Updated: 03/07/2015 20:50
NOT Current
Clear
Clear
 Wind from WNW
Wind: WNW 15 km/h
Temperature: 23°C
Dew Point: 18°C
Humidity: 74%
Barometer: 1019 hPa
Summary: Clear
Visibility: greater than 10 km
2015/07/03 17:50 LGSY 031750Z 30008KT CAVOK 23/18 Q1019 BLU
 
LGKZ - Kozani (civ/Army, Greece
Distance from station: NW 144km
Updated: 04/07/2015 02:20

 Wind from NW
Wind: NW 7 km/h
Temperature: 19°C
Dew Point: 15°C
Humidity: 78%
Barometer: 1025 hPa
2015/07/03 23:20 LGKZ 032320Z AUTO 31004KT 290V360 //// // ////// 19/15 Q1025 RE//
LGEL - Elefsis (hel-Afb, Greece
Distance from station: SSE 147km
Updated: 04/07/2015 02:20
Clear
Clear
 Wind from NNW
Wind: NNW 11 km/h
Temperature: 23°C
Dew Point: 11°C
Humidity: 47%
Barometer: 1020 hPa
Summary: Clear
Visibility: greater than 10 km
2015/07/03 23:20 LGEL 032320Z 33006KT CAVOK 23/11 Q1020
 
LGAV - Athens/Elef-Ven, Greece
Distance from station: SSE 176km
Updated: 04/07/2015 02:20
Clear
Clear
 Wind from NNE
Wind: NNE 24 km/h
Temperature: 23°C
Dew Point: 12°C
Humidity: 50%
Barometer: 1020 hPa
Summary: Clear
Visibility: greater than 10 km
2015/07/03 23:20 LGAV 032320Z 03013KT CAVOK 23/12 Q1020 NOSIG
LGRX - Araxos (civ/Afb), Greece
Distance from station: SW 182km
Updated: 04/07/2015 01:50
Partly cloudy
Partly cloudy
 Wind from NE
Wind: NE 11 km/h
Temperature: 25°C
Dew Point: 17°C
Humidity: 61%
Barometer: 1019 hPa
Clouds: Partly cloudy
Visibility: 10 km
Cloud details: Few Clouds 762 m
Partly cloudy 2438 m
2015/07/03 22:50 LGRX 032250Z 04006KT 9999 FEW025 SCT080 25/17 Q1019
 
LGIO - Ioannina, Greece
Distance from station: WNW 187km
Updated: 04/07/2015 02:20

 Wind from varies
Wind: varies 4 km/h
Temperature: 17°C
Dew Point: 15°C
Humidity: 88%
Barometer: 1022 hPa
2015/07/03 23:20 LGIO 032320Z AUTO VRB02KT //// // ////// 17/15 Q1022 RE//
LGPZ - Preveza/Aktion, Greece
Distance from station: WSW 191km
Updated: 04/07/2015 01:50
Few Clouds
Few Clouds
 Wind from calm
Wind: Calm
Temperature: 24°C
Dew Point: 19°C
Humidity: 74%
Barometer: 1020 hPa
Clouds: Few Clouds
Visibility: 10 km
Cloud details: Few Clouds 762 m
2015/07/03 22:50 LGPZ 032250Z 00000KT 9999 FEW025 24/19 Q1020
 
LGLM - Limnos Island Ar, Greece
Distance from station: ENE 209km
Updated: 04/07/2015 02:20

 Wind from NE
Wind: NE 19 km/h
Temperature: 22°C
Dew Point: 15°C
Humidity: 65%
Barometer: 1020 hPa
2015/07/03 23:20 LGLM 032320Z AUTO 04010KT //// // ////// 22/15 Q1020 RE//
LGAD - Andravida (civ/A, Greece
Distance from station: SW 211km
Updated: 04/07/2015 02:20
Few Clouds
Few Clouds
 Wind from calm
Wind: Calm
Temperature: 20°C
Dew Point: 17°C
Humidity: 83%
Barometer: 1019 hPa
Clouds: Few Clouds
Visibility: 10 km
Cloud details: Few Clouds 610 m
2015/07/03 23:20 LGAD 032320Z 00000KT 9999 FEW020 20/17 Q1019
 
LGKV - Kavala/Chrisoupo, Greece
Distance from station: NE 230km
Updated: 04/07/2015 01:50
Clear
Clear
 Wind from varies
Wind: varies 6 km/h
Temperature: 20°C
Dew Point: 15°C
Humidity: 73%
Barometer: 1021 hPa
Summary: Clear
Visibility: greater than 10 km
2015/07/03 22:50 LGKV 032250Z VRB03KT CAVOK 20/15 Q1021
LGKF - Kefallinia, Greece
Distance from station: WSW 249km
Updated: 04/07/2015 02:20

 Wind from varies
Wind: varies 2 km/h
Temperature: 21°C
Dew Point: 19°C
Humidity: 88%
Barometer: 1019 hPa
2015/07/03 23:20 LGKF 032320Z AUTO VRB01KT //// // ////// 21/19 Q1019 RE//
 
LGZA - Zakinthos Airpor, Greece
Distance from station: SW 249km
Updated: 04/07/2015 02:20

 Wind from varies
Wind: varies 4 km/h
Temperature: 22°C
Dew Point: 17°C
Humidity: 73%
Barometer: 1019 hPa
2015/07/03 23:20 LGZA 032320Z AUTO VRB02KT //// // ////// 22/17 Q1019 RE//
LGKL - Kalamata (hel-Af, Greece
Distance from station: SSW 261km
Updated: 04/07/2015 01:50
Few Clouds
Few Clouds
 Wind from calm
Wind: Calm
Temperature: 20°C
Dew Point: 18°C
Humidity: 88%
Barometer: 1019 hPa
Clouds: Few Clouds
Visibility: 10 km
Cloud details: Few Clouds 914 m
2015/07/03 22:50 LGKL 032250Z 00000KT 9999 FEW030 20/18 Q1019
 
LGKR - Ioannis Kapodist, Greece
Distance from station: W 261km
Updated: 04/07/2015 02:20
Partly cloudy
Partly cloudy
 Wind from calm
Wind: Calm
Temperature: 25°C
Dew Point: 20°C
Humidity: 74%
Barometer: 1019 hPa
Clouds: Partly cloudy
Visibility: 10 km
Cloud details: Few Clouds 762 m
Partly cloudy 2438 m
2015/07/03 23:20 LGKR 032320Z 00000KT 9999 FEW025 SCT080 25/20 Q1019 NOSIG
LGSO - Syros, Greece
Distance from station: SE 274km
Updated: 04/07/2015 02:20

 Wind from NNW
Wind: NNW 20 km/h
Temperature: 23°C
Dew Point: 15°C
Humidity: 61%
Barometer: 1018 hPa
2015/07/03 23:20 LGSO 032320Z AUTO 34011KT 330V040 //// // ////// 23/15 Q1018 RE//
 
LGMK - Mikonos Island, Greece
Distance from station: SE 296km
Updated: 04/07/2015 02:20
Clear
Clear
 Wind from N
Wind: N 24 km/h
Temperature: 22°C
Dew Point: 19°C
Humidity: 83%
Barometer: 1017 hPa
Summary: Clear
Visibility: greater than 10 km
2015/07/03 23:20 LGMK 032320Z 35013KT CAVOK 22/19 Q1017